ePrivacy and GPDR Cookie Consent by Cookie Consent
EmailTwitter


Surface observations / France / LFBP (07610)

Regions: Quebec | Canada | USA | Europe | France | UK | Elsewhere
Station
Display
Info & Location for LFBP (07610) | Help decoding METAR

Weather Conditions observed on 2022/01/17 at 20:00 UTC at PONT-LONG-UZEIN/, FR (LFBP)

Temperature: 4.0 Celsius.

Dewpoint: 2.0 Celsius.

Relative Humidity: 87%

Winds: East at 6 km/h or 3 knots.

Mean Sea level Pressure: 103.40 kilopascals.

Coded METAR:

LFBP 172000Z AUTO 08003KT CAVOK 04/02 Q1034 TEMPO 3000 BR=